Time;durP1;ratioP1;P1;durP2;ratioP2;P2;SDS_P1;SDS_P2;PMS_P1;PMS_P2;Temp;Humidity;BMP_temperature;BMP_pressure;BME280_temperature;BME280_humidity;BME280_pressure;Samples;Min_cycle;Max_cycle;Signal;HPM_P1;HPM_P2
2023/05/28 00:02:25;;;;;;;7.40;3.90;;;;;;;21.44;88.30;100345.45;108836;1272;21977;-61
2023/05/28 00:04:50;;;;;;;5.90;3.80;;;;;;;21.43;88.31;100343.73;108823;1277;21969;-61
2023/05/28 00:07:16;;;;;;;5.00;3.50;;;;;;;21.43;88.35;100340.33;108802;1267;21984;-61
2023/05/28 00:09:42;;;;;;;6.80;4.10;;;;;;;21.44;88.36;100339.40;108840;1277;21985;-62
2023/05/28 00:12:07;;;;;;;10.10;4.10;;;;;;;21.45;88.32;100338.43;108903;1277;21984;-63
2023/05/28 00:14:34;;;;;;;5.80;3.70;;;;;;;21.46;88.29;100335.86;108870;1276;21976;-61
2023/05/28 00:17:00;;;;;;;5.10;3.80;;;;;;;21.47;88.08;100337.58;108824;1270;22038;-62
2023/05/28 00:19:25;;;;;;;6.70;4.20;;;;;;;21.46;87.98;100337.66;108865;1277;21977;-61
2023/05/28 00:21:51;;;;;;;7.40;4.10;;;;;;;21.45;87.84;100339.35;108861;1277;21981;-63
2023/05/28 00:24:17;;;;;;;6.30;4.60;;;;;;;21.43;87.81;100338.23;108835;1276;22015;-61
2023/05/28 00:26:42;;;;;;;7.80;4.80;;;;;;;21.42;87.87;100340.62;108839;1277;22017;-61
2023/05/28 00:29:08;;;;;;;5.80;4.50;;;;;;;21.41;87.87;100340.66;108807;1267;22007;-61
2023/05/28 00:31:33;;;;;;;5.20;4.50;;;;;;;21.40;87.69;100340.50;108838;1277;21976;-62
2023/05/28 00:33:59;;;;;;;6.30;4.70;;;;;;;21.38;87.63;100340.42;108866;1265;21984;-61
2023/05/28 00:36:25;;;;;;;6.40;4.70;;;;;;;21.36;87.44;100342.91;109006;1277;21982;-63
2023/05/28 00:38:50;;;;;;;6.20;4.50;;;;;;;21.32;87.47;100336.70;108839;1271;21979;-62
2023/05/28 00:41:22;;;;;;;8.90;4.80;;;;;;;21.29;87.53;100337.94;108860;1270;21987;-62
2023/05/28 00:43:48;;;;;;;;;;;;;;;21.25;87.53;100333.15;108878;1270;22072;-61
2023/05/28 00:46:17;;;;;;;6.80;5.10;;;;;;;21.23;87.57;100333.83;108855;1272;21987;-61
2023/05/28 00:48:43;;;;;;;6.30;4.70;;;;;;;21.26;87.43;100332.20;108466;1277;22001;-61
2023/05/28 00:51:10;;;;;;;6.80;4.80;;;;;;;21.34;86.30;100332.83;108861;1277;22084;-62
2023/05/28 00:53:36;;;;;;;6.10;4.50;;;;;;;21.33;86.32;100329.83;108879;1277;22010;-61
2023/05/28 00:56:02;;;;;;;5.40;4.20;;;;;;;21.34;86.29;100329.64;108863;1272;21974;-62
2023/05/28 00:58:28;;;;;;;7.20;4.60;;;;;;;21.34;86.24;100331.73;108846;1277;21974;-61
2023/05/28 01:00:54;;;;;;;5.70;4.60;;;;;;;21.35;86.20;100325.30;108733;1274;21966;-62
2023/05/28 01:03:19;;;;;;;6.70;4.60;;;;;;;21.34;86.12;100324.06;108834;1275;22017;-61
2023/05/28 01:05:45;;;;;;;10.00;4.60;;;;;;;21.34;86.25;100317.99;108847;1271;21974;-62
2023/05/28 01:08:11;;;;;;;9.90;5.00;;;;;;;21.33;86.14;100312.16;108950;1270;21964;-62
2023/05/28 01:10:37;;;;;;;8.20;4.90;;;;;;;21.31;86.20;100307.33;108911;1271;22017;-63
2023/05/28 01:13:04;;;;;;;6.60;5.00;;;;;;;21.28;86.28;100305.70;108838;1277;23605;-62
2023/05/28 01:15:30;;;;;;;8.00;5.40;;;;;;;21.27;86.40;100308.63;108945;1277;21984;-62
2023/05/28 01:17:57;;;;;;;6.40;4.60;;;;;;;21.27;86.45;100310.23;108730;1273;21982;-62
2023/05/28 01:20:24;;;;;;;6.80;5.30;;;;;;;21.28;86.52;100309.66;108900;1270;21998;-62
2023/05/28 01:22:55;;;;;;;7.70;5.20;;;;;;;21.29;86.63;100313.48;108795;1277;21981;-62
2023/05/28 01:25:22;;;;;;;6.60;4.90;;;;;;;21.31;86.55;100309.11;108926;1277;21987;-62
2023/05/28 01:27:47;;;;;;;7.70;5.30;;;;;;;21.32;86.67;100308.84;108869;1277;21992;-62
2023/05/28 01:30:13;;;;;;;7.80;4.90;;;;;;;21.34;86.49;100306.77;108518;1277;21983;-62
2023/05/28 01:32:39;;;;;;;9.80;5.20;;;;;;;21.36;86.25;100307.37;108800;1267;21983;-62
2023/05/28 01:35:05;;;;;;;6.50;5.40;;;;;;;21.36;86.36;100311.47;108840;1277;21978;-64
2023/05/28 01:37:33;;;;;;;7.30;5.20;;;;;;;21.37;86.42;100309.10;108775;1277;21975;-62
2023/05/28 01:39:59;;;;;;;7.90;5.00;;;;;;;21.37;86.39;100305.55;108901;1276;22451;-62
2023/05/28 01:42:25;;;;;;;8.10;5.70;;;;;;;21.37;86.28;100302.67;108761;1267;21983;-62
2023/05/28 01:44:50;;;;;;;9.80;5.40;;;;;;;21.38;86.30;100302.07;108517;1277;22289;-62
2023/05/28 01:47:16;;;;;;;7.30;5.40;;;;;;;21.40;86.38;100300.19;108758;1270;21975;-62
2023/05/28 01:49:41;;;;;;;7.20;5.10;;;;;;;21.41;86.37;100298.87;108744;1276;23064;-62
2023/05/28 01:52:07;;;;;;;6.90;5.60;;;;;;;21.42;86.26;100301.16;108719;1267;21978;-63
2023/05/28 01:54:34;;;;;;;7.20;5.40;;;;;;;21.39;86.32;100300.61;108833;1277;22036;-62
2023/05/28 01:57:00;;;;;;;7.70;5.70;;;;;;;21.40;86.25;100302.16;108864;1277;21999;-62
2023/05/28 01:59:26;;;;;;;7.20;5.40;;;;;;;21.38;86.18;100303.70;108936;1273;23716;-62
2023/05/28 02:01:52;;;;;;;11.90;6.30;;;;;;;21.38;86.28;100305.48;108931;1277;21977;-61
2023/05/28 02:04:17;;;;;;;7.40;5.90;;;;;;;21.36;86.13;100310.42;108830;1270;21978;-62
2023/05/28 02:06:45;;;;;;;18.80;6.90;;;;;;;21.30;85.85;100310.40;108832;1276;22037;-62
2023/05/28 02:09:11;;;;;;;8.80;6.40;;;;;;;21.22;85.80;100309.06;108836;1267;21976;-62
2023/05/28 02:11:36;;;;;;;8.20;6.00;;;;;;;21.16;85.95;100311.57;108842;1268;23039;-61
2023/05/28 02:14:03;;;;;;;7.50;6.10;;;;;;;21.10;85.96;100311.52;108944;1277;21973;-61
2023/05/28 02:16:29;;;;;;;10.30;6.30;;;;;;;21.07;86.22;100312.25;108840;1277;21981;-61
2023/05/28 02:18:55;;;;;;;8.00;6.20;;;;;;;21.04;86.07;100312.08;108895;1267;21981;-61
2023/05/28 02:21:22;;;;;;;9.70;6.10;;;;;;;20.99;86.10;100310.20;108800;1267;21987;-62
2023/05/28 02:23:48;;;;;;;10.80;6.60;;;;;;;20.97;86.09;100312.85;108853;1270;21986;-62
2023/05/28 02:26:14;;;;;;;8.90;6.00;;;;;;;20.96;86.30;100315.38;108810;1271;21975;-62
2023/05/28 02:28:42;;;;;;;7.50;6.10;;;;;;;20.94;86.48;100311.90;108827;1267;21979;-61
2023/05/28 02:31:09;;;;;;;8.80;5.90;;;;;;;20.92;86.50;100313.42;108900;1267;21977;-62
2023/05/28 02:33:37;;;;;;;8.80;6.30;;;;;;;20.94;86.70;100314.62;108889;1277;21984;-61
2023/05/28 02:36:03;;;;;;;8.40;6.10;;;;;;;20.96;86.89;100315.75;108841;1277;22031;-62
2023/05/28 02:38:29;;;;;;;8.60;6.60;;;;;;;20.98;86.93;100317.21;108867;1270;21977;-61
2023/05/28 02:40:55;;;;;;;7.40;6.20;;;;;;;21.01;86.93;100316.87;108912;1270;21954;-62
2023/05/28 02:43:21;;;;;;;7.90;6.40;;;;;;;21.05;87.16;100318.27;108864;1271;21973;-61
2023/05/28 02:45:46;;;;;;;7.30;6.10;;;;;;;21.08;87.23;100323.08;108887;1271;21977;-61
2023/05/28 02:48:12;;;;;;;7.90;6.30;;;;;;;21.12;87.18;100320.19;108884;1277;21980;-61
2023/05/28 02:50:37;;;;;;;9.90;7.10;;;;;;;21.15;87.41;100323.94;108910;1277;21982;-61
2023/05/28 02:53:03;;;;;;;10.50;6.60;;;;;;;21.18;87.53;100321.64;108834;1273;21985;-61
2023/05/28 02:55:29;;;;;;;9.40;6.20;;;;;;;21.18;87.36;100318.59;108828;1267;21983;-61
2023/05/28 02:57:54;;;;;;;7.70;6.40;;;;;;;21.19;87.54;100324.04;108824;1270;21986;-61
2023/05/28 03:00:21;;;;;;;8.80;6.20;;;;;;;21.23;87.60;100326.31;108887;1273;21980;-63
2023/05/28 03:02:47;;;;;;;7.50;6.40;;;;;;;21.26;87.58;100328.64;108805;1274;21979;-61
2023/05/28 03:05:13;;;;;;;9.50;7.10;;;;;;;21.27;87.52;100334.30;108823;1267;21982;-61
2023/05/28 03:07:39;;;;;;;7.00;6.20;;;;;;;21.28;87.68;100331.03;108890;1270;22024;-61
2023/05/28 03:10:05;;;;;;;7.70;6.30;;;;;;;21.31;87.90;100333.90;108830;1277;21995;-61
2023/05/28 03:12:31;;;;;;;8.70;6.40;;;;;;;21.33;87.83;100337.88;108889;1271;21979;-62
2023/05/28 03:14:56;;;;;;;7.00;6.00;;;;;;;21.36;87.55;100339.14;108843;1271;21982;-61
2023/05/28 03:17:22;;;;;;;9.80;6.60;;;;;;;21.37;87.55;100337.98;108861;1267;21981;-62
2023/05/28 03:19:48;;;;;;;10.10;6.50;;;;;;;21.40;87.75;100341.02;108885;1267;21986;-62
2023/05/28 03:22:13;;;;;;;7.90;6.80;;;;;;;21.42;87.65;100338.81;108812;1271;21989;-64
2023/05/28 03:24:39;;;;;;;8.20;6.60;;;;;;;21.43;87.89;100337.49;108743;1273;21980;-62
2023/05/28 03:27:05;;;;;;;11.20;6.50;;;;;;;21.43;87.93;100337.13;108834;1275;21985;-64
2023/05/28 03:29:31;;;;;;;15.10;7.30;;;;;;;21.44;87.76;100337.05;108898;1275;21982;-64
2023/05/28 03:31:57;;;;;;;8.80;6.30;;;;;;;21.46;87.82;100339.43;108824;1277;21981;-65
2023/05/28 03:34:23;;;;;;;9.30;6.40;;;;;;;21.50;87.90;100342.09;108831;1267;21979;-63
2023/05/28 03:36:50;;;;;;;8.00;6.60;;;;;;;21.54;87.95;100345.61;108850;1277;22005;-62
2023/05/28 03:39:16;;;;;;;7.60;6.80;;;;;;;21.57;87.86;100349.70;108957;1275;21987;-62
2023/05/28 03:41:44;;;;;;;7.40;6.30;;;;;;;21.60;87.97;100354.55;108869;1277;21979;-65
2023/05/28 03:44:09;;;;;;;9.00;6.90;;;;;;;21.62;87.95;100359.77;108863;1277;21976;-63
2023/05/28 03:46:37;;;;;;;7.50;6.10;;;;;;;21.66;87.93;100363.45;108880;1277;22021;-62
2023/05/28 03:49:03;;;;;;;9.50;6.50;;;;;;;21.72;87.94;100364.44;108839;1275;21982;-63
2023/05/28 03:51:29;;;;;;;7.50;6.20;;;;;;;21.77;87.88;100370.73;108804;1275;21991;-62
2023/05/28 03:53:54;;;;;;;11.00;7.20;;;;;;;21.81;88.01;100369.23;108730;1267;21977;-62
2023/05/28 03:56:20;;;;;;;8.00;6.70;;;;;;;21.86;88.13;100366.41;108786;1278;22017;-64
2023/05/28 03:58:46;;;;;;;11.50;7.40;;;;;;;21.91;88.28;100360.59;108689;1277;21978;-62
2023/05/28 04:01:12;;;;;;;9.50;6.30;;;;;;;21.96;88.31;100360.10;108756;1278;22021;-63
2023/05/28 04:03:38;;;;;;;8.70;6.60;;;;;;;22.03;88.39;100361.49;108743;1278;22835;-61
2023/05/28 04:06:04;;;;;;;10.90;7.10;;;;;;;22.09;88.38;100356.08;108617;1273;21980;-62
2023/05/28 04:08:30;;;;;;;14.20;8.50;;;;;;;22.16;88.44;100354.95;108923;1271;21988;-61
2023/05/28 04:10:57;;;;;;;10.00;7.20;;;;;;;22.23;88.73;100357.08;108751;1273;22447;-60
2023/05/28 04:13:23;;;;;;;10.70;6.80;;;;;;;22.30;88.89;100354.98;108751;1277;21974;-64
2023/05/28 04:15:48;;;;;;;10.80;7.60;;;;;;;22.40;89.05;100357.81;108716;1274;21976;-62
2023/05/28 04:18:14;;;;;;;9.70;6.80;;;;;;;22.49;88.98;100359.27;108710;1271;21987;-64
2023/05/28 04:20:41;;;;;;;11.00;6.70;;;;;;;22.56;88.92;100358.80;108725;1271;22008;-66
2023/05/28 04:23:08;;;;;;;9.30;6.20;;;;;;;22.64;89.43;100354.89;108758;1271;22457;-62
2023/05/28 04:25:33;;;;;;;8.50;7.60;;;;;;;22.75;89.72;100355.65;108721;1277;21980;-63
2023/05/28 04:28:02;;;;;;;7.60;6.70;;;;;;;22.87;90.25;100358.47;108806;1265;21994;-64
2023/05/28 04:30:28;;;;;;;8.20;7.20;;;;;;;23.01;90.61;100361.72;108653;1278;21997;-64
2023/05/28 04:32:54;;;;;;;8.70;6.70;;;;;;;23.14;91.14;100366.02;108618;1274;22007;-63
2023/05/28 04:35:21;;;;;;;9.60;6.70;;;;;;;23.30;91.41;100363.42;108697;1273;21979;-61
2023/05/28 04:37:47;;;;;;;8.20;7.00;;;;;;;23.43;90.60;100363.26;108739;1276;22013;-62
2023/05/28 04:40:12;;;;;;;10.10;6.40;;;;;;;23.57;90.46;100363.21;108814;1274;21990;-64
2023/05/28 04:42:40;;;;;;;16.30;7.00;;;;;;;23.75;90.40;100363.33;108799;1270;21987;-61
2023/05/28 04:45:07;;;;;;;11.70;7.10;;;;;;;23.91;90.21;100366.66;108702;1273;21992;-65
2023/05/28 04:47:34;;;;;;;14.20;8.00;;;;;;;23.97;89.89;100370.77;108725;1276;23049;-60
2023/05/28 04:50:03;;;;;;;14.60;7.80;;;;;;;24.03;89.86;100372.90;108695;1277;21979;-64
2023/05/28 04:52:31;;;;;;;9.70;8.00;;;;;;;24.11;89.40;100377.52;108705;1270;22161;-61
2023/05/28 04:54:57;;;;;;;11.30;6.90;;;;;;;24.19;89.15;100375.22;108754;1277;21975;-63
2023/05/28 04:57:23;;;;;;;12.30;7.50;;;;;;;24.26;89.21;100373.81;108688;1278;21979;-63
2023/05/28 04:59:49;;;;;;;11.50;6.90;;;;;;;24.34;88.90;100376.64;108751;1274;21979;-61
2023/05/28 05:02:18;;;;;;;9.20;7.90;;;;;;;24.39;88.32;100374.70;108702;1278;21981;-64
2023/05/28 05:04:43;;;;;;;20.00;8.30;;;;;;;24.44;88.15;100376.88;108730;1267;22020;-65
2023/05/28 05:07:09;;;;;;;14.60;8.50;;;;;;;24.47;87.93;100377.23;108697;1270;22446;-64
2023/05/28 05:09:35;;;;;;;11.60;7.70;;;;;;;24.47;87.66;100380.04;108715;1271;21991;-64
2023/05/28 05:12:01;;;;;;;9.20;7.80;;;;;;;24.48;87.93;100383.93;108775;1278;23485;-61
2023/05/28 05:14:26;;;;;;;9.50;7.10;;;;;;;24.51;87.69;100387.70;108712;1278;21991;-62
2023/05/28 05:16:52;;;;;;;13.00;7.40;;;;;;;24.50;87.30;100390.45;108687;1277;21981;-63
2023/05/28 05:19:18;;;;;;;8.40;7.50;;;;;;;24.47;86.65;100390.63;108743;1267;21985;-61
2023/05/28 05:21:44;;;;;;;9.90;7.50;;;;;;;24.44;86.45;100389.08;108693;1265;22017;-64
2023/05/28 05:24:10;;;;;;;8.70;7.10;;;;;;;24.40;86.48;100385.77;108648;1278;21977;-61
2023/05/28 05:26:36;;;;;;;13.20;8.00;;;;;;;24.35;86.47;100387.01;108687;1272;21977;-63
2023/05/28 05:29:01;;;;;;;9.60;8.70;;;;;;;24.31;86.33;100388.19;108752;1270;23670;-63
2023/05/28 05:31:27;;;;;;;8.80;7.90;;;;;;;24.25;86.11;100388.77;108717;1278;21986;-61
2023/05/28 05:33:52;;;;;;;8.80;7.20;;;;;;;24.18;85.90;100387.83;108672;1269;22014;-62
2023/05/28 05:36:18;;;;;;;9.70;6.90;;;;;;;24.12;85.97;100389.45;108710;1271;21988;-61
2023/05/28 05:38:45;;;;;;;9.20;7.00;;;;;;;24.09;86.17;100387.73;108712;1272;21986;-63
2023/05/28 05:41:11;;;;;;;8.70;7.50;;;;;;;24.05;86.84;100385.82;108806;1267;22023;-63
2023/05/28 05:43:37;;;;;;;9.00;7.40;;;;;;;24.06;87.10;100391.14;109131;1267;22027;-63
2023/05/28 05:46:03;;;;;;;8.10;6.30;;;;;;;24.09;86.97;100388.42;108719;1270;21981;-63
2023/05/28 05:48:28;;;;;;;10.40;8.10;;;;;;;24.10;86.65;100393.36;108688;1270;21977;-62
2023/05/28 05:50:55;;;;;;;8.70;7.10;;;;;;;24.10;86.76;100393.40;108689;1277;21981;-62
2023/05/28 05:53:21;;;;;;;8.80;7.80;;;;;;;24.10;87.06;100396.81;108773;1270;21988;-62
2023/05/28 05:55:47;;;;;;;9.00;8.00;;;;;;;24.11;87.35;100401.89;108736;1278;21996;-63
2023/05/28 05:58:13;;;;;;;8.50;7.30;;;;;;;24.12;87.33;100402.55;108753;1268;21994;-61
2023/05/28 06:00:40;;;;;;;8.70;7.70;;;;;;;24.02;88.56;100400.91;108721;1278;21981;-62
2023/05/28 06:03:06;;;;;;;9.10;7.00;;;;;;;24.04;88.87;100402.02;108903;1264;21983;-65
2023/05/28 06:05:33;;;;;;;8.20;7.40;;;;;;;24.08;89.01;100404.08;108726;1276;21999;-61
2023/05/28 06:07:58;;;;;;;9.00;6.20;;;;;;;24.10;89.18;100408.46;108734;1277;21981;-65
2023/05/28 06:10:24;;;;;;;7.90;7.10;;;;;;;24.15;89.56;100410.77;108698;1267;21988;-63
2023/05/28 06:12:50;;;;;;;10.60;7.50;;;;;;;24.22;89.14;100412.32;108712;1278;21987;-61
2023/05/28 06:15:15;;;;;;;9.80;7.00;;;;;;;24.22;89.19;100412.42;108766;1271;21985;-65
2023/05/28 06:17:41;;;;;;;8.50;7.70;;;;;;;24.27;89.27;100410.19;108717;1267;21990;-65
2023/05/28 06:20:08;;;;;;;10.50;8.40;;;;;;;24.29;89.59;100407.50;108709;1273;21984;-65
2023/05/28 06:22:35;;;;;;;9.30;7.30;;;;;;;24.31;89.46;100403.73;108735;1264;21984;-63
2023/05/28 06:25:00;;;;;;;9.50;7.80;;;;;;;24.38;89.53;100403.30;108669;1278;21980;-62
2023/05/28 06:27:27;;;;;;;9.60;7.40;;;;;;;24.46;89.89;100400.91;108718;1274;21975;-61
2023/05/28 06:29:53;;;;;;;9.40;6.90;;;;;;;24.56;90.06;100403.11;108875;1277;21982;-64
2023/05/28 06:32:19;;;;;;;8.30;7.50;;;;;;;24.68;91.13;100400.45;108806;1271;24348;-61
2023/05/28 06:34:45;;;;;;;8.50;6.80;;;;;;;24.85;91.37;100398.78;108879;1267;21977;-61
2023/05/28 06:37:12;;;;;;;10.70;7.10;;;;;;;25.04;91.60;100399.20;108817;1278;21977;-64
2023/05/28 06:39:37;;;;;;;11.20;7.70;;;;;;;25.27;91.33;100404.88;108880;1277;21981;-63
2023/05/28 06:42:03;;;;;;;12.70;8.50;;;;;;;25.47;90.79;100407.36;108700;1273;21979;-61
2023/05/28 06:44:29;;;;;;;9.70;8.40;;;;;;;25.63;90.97;100410.27;108745;1271;21982;-62
2023/05/28 06:46:54;;;;;;;8.60;7.70;;;;;;;25.79;90.25;100411.98;108762;1267;21989;-63
2023/05/28 06:49:20;;;;;;;12.00;8.00;;;;;;;25.91;89.95;100417.54;108519;1267;21980;-63
2023/05/28 06:51:46;;;;;;;8.60;7.70;;;;;;;26.06;90.09;100419.11;108729;1278;21983;-63
2023/05/28 06:54:11;;;;;;;14.90;9.20;;;;;;;26.19;89.21;100417.98;108686;1271;21990;-61
2023/05/28 06:56:37;;;;;;;14.10;9.70;;;;;;;26.27;88.99;100414.63;108730;1271;21982;-61
2023/05/28 06:59:03;;;;;;;14.80;8.70;;;;;;;26.37;89.03;100417.98;108718;1271;21971;-61
2023/05/28 07:01:28;;;;;;;15.60;9.00;;;;;;;26.46;88.82;100416.03;108689;1271;21982;-63
2023/05/28 07:03:54;;;;;;;16.10;9.00;;;;;;;26.55;88.39;100413.88;108761;1264;21987;-65
2023/05/28 07:06:20;;;;;;;13.50;10.00;;;;;;;26.61;87.66;100411.67;108696;1276;23118;-61
2023/05/28 07:08:46;;;;;;;15.90;9.70;;;;;;;26.65;87.49;100411.54;108938;1274;21968;-63
2023/05/28 07:11:12;;;;;;;12.00;8.20;;;;;;;26.71;87.24;100408.16;108839;1274;21976;-60
2023/05/28 07:13:41;;;;;;;16.70;10.50;;;;;;;26.74;86.97;100406.86;108880;1274;21974;-62
2023/05/28 07:16:06;;;;;;;19.00;10.90;;;;;;;26.78;86.88;100409.05;108863;1268;23036;-63
2023/05/28 07:18:32;;;;;;;20.80;11.00;;;;;;;26.81;86.64;100410.27;109502;1273;21895;-60
2023/05/28 07:20:59;;;;;;;14.20;8.90;;;;;;;26.84;86.16;100413.81;109491;1270;23425;-62
2023/05/28 07:23:24;;;;;;;9.10;6.90;;;;;;;26.84;85.78;100412.54;108822;1271;21980;-63
2023/05/28 07:25:50;;;;;;;9.40;7.40;;;;;;;26.83;85.58;100414.42;108718;1267;21986;-63
2023/05/28 07:28:16;;;;;;;11.90;7.90;;;;;;;26.84;85.45;100417.41;110092;1270;21998;-60
2023/05/28 07:30:42;;;;;;;10.60;7.60;;;;;;;26.83;85.12;100419.85;108840;1270;21984;-62
2023/05/28 07:33:09;;;;;;;11.90;8.50;;;;;;;26.78;84.45;100424.21;108837;1274;21994;-62
2023/05/28 07:35:35;;;;;;;9.90;8.00;;;;;;;26.68;83.85;100424.80;108848;1277;21974;-60
2023/05/28 07:38:03;;;;;;;8.50;7.00;;;;;;;26.60;83.94;100427.60;108843;1266;22014;-61
2023/05/28 07:40:29;;;;;;;9.00;7.40;;;;;;;26.54;83.55;100429.07;108872;1277;21971;-63
2023/05/28 07:42:55;;;;;;;10.00;7.50;;;;;;;26.49;83.98;100430.23;108825;1274;21997;-60
2023/05/28 07:45:21;;;;;;;9.00;7.60;;;;;;;26.46;84.66;100427.23;108871;1277;21983;-60
2023/05/28 07:47:46;;;;;;;10.00;7.90;;;;;;;26.44;84.72;100425.60;108839;1271;21976;-62
2023/05/28 07:50:13;;;;;;;9.60;7.90;;;;;;;26.43;84.28;100425.30;108828;1265;22019;-61
2023/05/28 07:52:40;;;;;;;9.60;7.10;;;;;;;26.40;84.28;100422.65;108887;1277;21996;-62
2023/05/28 07:55:07;;;;;;;9.40;7.00;;;;;;;26.40;84.50;100422.45;108907;1277;22036;-63
2023/05/28 07:57:33;;;;;;;9.60;7.50;;;;;;;26.43;84.52;100418.46;108850;1271;21976;-61
2023/05/28 08:00:00;;;;;;;7.80;6.80;;;;;;;26.45;84.80;100413.98;108864;1267;21983;-63
2023/05/28 08:02:26;;;;;;;8.50;7.30;;;;;;;26.49;85.51;100416.23;108892;1270;21984;-62
2023/05/28 08:04:53;;;;;;;8.40;7.50;;;;;;;26.53;85.71;100409.02;108869;1277;21981;-60
2023/05/28 08:07:19;;;;;;;9.00;7.10;;;;;;;26.63;85.42;100405.39;108925;1274;21981;-62
2023/05/28 08:09:45;;;;;;;9.90;7.20;;;;;;;26.71;85.17;100403.48;108878;1270;21987;-63
2023/05/28 08:12:10;;;;;;;8.70;7.10;;;;;;;26.79;85.39;100403.94;108824;1268;21968;-61
2023/05/28 08:14:36;;;;;;;8.10;7.20;;;;;;;26.89;85.75;100405.31;108829;1274;22926;-63
2023/05/28 08:17:02;;;;;;;10.00;7.70;;;;;;;27.01;85.43;100400.08;108857;1277;21974;-60
2023/05/28 08:19:28;;;;;;;10.40;7.40;;;;;;;27.09;84.80;100397.75;108808;1270;21969;-60
2023/05/28 08:21:53;;;;;;;9.60;8.20;;;;;;;27.17;84.75;100395.30;108818;1275;22005;-61
2023/05/28 08:24:20;;;;;;;9.90;8.20;;;;;;;27.28;84.53;100390.31;108854;1276;22007;-60
2023/05/28 08:26:46;;;;;;;9.40;8.40;;;;;;;27.40;85.35;100391.42;108895;1265;21990;-60
2023/05/28 08:29:12;;;;;;;9.10;7.80;;;;;;;27.53;84.58;100394.77;108893;1267;22011;-62
2023/05/28 08:31:37;;;;;;;8.40;7.40;;;;;;;27.64;84.78;100392.17;108821;1270;21984;-62
2023/05/28 08:34:03;;;;;;;10.80;7.70;;;;;;;27.78;84.68;100388.84;108917;1277;21989;-63
2023/05/28 08:36:29;;;;;;;9.10;8.20;;;;;;;27.92;84.40;100389.11;108882;1273;21975;-60
2023/05/28 08:38:55;;;;;;;9.20;8.30;;;;;;;28.06;84.24;100390.06;108877;1267;21984;-63
2023/05/28 08:41:21;;;;;;;9.00;8.00;;;;;;;28.15;83.62;100391.45;108799;1275;21972;-63
2023/05/28 08:43:47;;;;;;;8.60;7.80;;;;;;;28.23;83.45;100392.27;109843;1277;21980;-62
2023/05/28 08:46:13;;;;;;;9.10;7.10;;;;;;;28.28;83.08;100399.77;108742;1268;21994;-61
2023/05/28 08:48:40;;;;;;;8.20;7.20;;;;;;;28.32;82.47;100405.88;108871;1270;21986;-63
2023/05/28 08:51:06;;;;;;;9.80;7.70;;;;;;;28.36;82.30;100409.89;108937;1277;21988;-61
2023/05/28 08:53:36;;;;;;;10.10;8.00;;;;;;;28.39;81.96;100413.09;108876;1271;21990;-61
2023/05/28 08:56:05;;;;;;;8.50;7.60;;;;;;;28.37;81.64;100413.09;108742;1267;22020;-60
2023/05/28 08:58:30;;;;;;;10.40;7.90;;;;;;;28.37;82.46;100414.14;108761;1273;21977;-60
2023/05/28 09:00:56;;;;;;;9.00;8.10;;;;;;;28.37;82.20;100413.95;108894;1271;21977;-60
2023/05/28 09:03:21;;;;;;;10.60;8.10;;;;;;;28.31;82.02;100414.08;108875;1274;22093;-61
2023/05/28 09:05:47;;;;;;;9.50;7.70;;;;;;;28.27;82.06;100410.34;108847;1274;22015;-60
2023/05/28 09:08:13;;;;;;;9.30;7.40;;;;;;;28.23;81.83;100412.49;108888;1277;21990;-63
2023/05/28 09:10:40;;;;;;;10.20;8.40;;;;;;;28.20;81.92;100412.36;108846;1267;22006;-60
2023/05/28 09:13:06;;;;;;;9.60;8.10;;;;;;;28.17;82.43;100415.88;108853;1277;22033;-63
2023/05/28 09:15:34;;;;;;;8.70;7.80;;;;;;;28.18;82.68;100416.38;108806;1276;21971;-64
2023/05/28 09:18:00;;;;;;;11.50;8.10;;;;;;;28.20;82.41;100417.41;108918;1270;22924;-62
2023/05/28 09:20:26;;;;;;;7.60;6.80;;;;;;;28.23;82.34;100413.95;108901;1270;21992;-62
2023/05/28 09:23:02;;;;;;;8.70;7.70;;;;;;;28.25;81.96;100414.07;108903;1271;21982;-61
2023/05/28 09:25:28;;;;;;;10.70;7.50;;;;;;;28.26;81.50;100412.73;108842;1270;21987;-60
2023/05/28 09:27:55;;;;;;;9.20;8.00;;;;;;;28.30;81.40;100418.48;108816;1277;21983;-60
2023/05/28 09:30:22;;;;;;;13.90;7.80;;;;;;;28.32;81.27;100418.73;109029;1270;22170;-61
2023/05/28 09:32:56;;;;;;;10.60;7.90;;;;;;;28.36;81.34;100417.27;109056;1264;21996;-63
2023/05/28 09:35:24;;;;;;;10.50;7.60;;;;;;;28.45;81.23;100417.84;108839;1267;22970;-61
2023/05/28 09:38:05;;;;;;;9.00;7.20;;;;;;;28.52;80.97;100417.75;108822;1265;21979;-62
2023/05/28 09:40:32;;;;;;;9.40;8.00;;;;;;;28.55;80.55;100414.63;108903;1275;21974;-64
2023/05/28 09:42:57;;;;;;;8.40;7.50;;;;;;;28.53;79.44;100414.02;108780;1267;21982;-62
2023/05/28 09:45:25;;;;;;;9.00;8.00;;;;;;;28.47;79.05;100415.27;108832;1267;21976;-64
2023/05/28 09:47:50;;;;;;;9.80;7.60;;;;;;;28.41;78.65;100415.10;108859;1270;22020;-62
2023/05/28 09:50:16;;;;;;;9.50;8.40;;;;;;;28.29;77.89;100418.22;108839;1270;21977;-62
2023/05/28 09:52:45;;;;;;;13.00;8.20;;;;;;;28.20;77.69;100415.20;108831;1277;21972;-63
2023/05/28 09:55:20;;;;;;;9.90;7.10;;;;;;;28.17;78.40;100416.60;108842;1277;21975;-64
2023/05/28 09:57:48;;;;;;;10.60;8.40;;;;;;;28.13;77.50;100416.39;108907;1270;21980;-61
2023/05/28 10:00:22;;;;;;;8.70;7.90;;;;;;;28.05;77.78;100418.80;108841;1277;21979;-63
2023/05/28 10:03:04;;;;;;;15.70;8.30;;;;;;;27.95;77.47;100415.34;108848;1271;21976;-60
2023/05/28 10:05:32;;;;;;;9.90;7.70;;;;;;;27.80;76.68;100409.09;108828;1267;21982;-64
2023/05/28 10:07:58;;;;;;;9.70;7.60;;;;;;;27.67;77.49;100411.74;108874;1277;21955;-61
2023/05/28 10:10:23;;;;;;;9.30;7.40;;;;;;;27.61;77.50;100407.06;108987;1274;22139;-66
2023/05/28 10:12:49;;;;;;;8.20;7.10;;;;;;;27.56;77.75;100405.48;108974;1276;21975;-66
2023/05/28 10:15:17;;;;;;;9.60;7.40;;;;;;;27.53;78.59;100402.86;108953;1277;21992;-66
2023/05/28 10:17:43;;;;;;;9.40;8.20;;;;;;;27.49;77.94;100399.06;108983;1274;21988;-65
2023/05/28 10:20:10;;;;;;;9.80;8.80;;;;;;;27.43;78.03;100399.10;109072;1270;22039;-61
2023/05/28 10:22:38;;;;;;;9.40;8.50;;;;;;;27.41;78.58;100399.52;108972;1268;21980;-65
2023/05/28 10:25:04;;;;;;;9.70;7.90;;;;;;;27.39;79.08;100399.66;108729;1268;21988;-60
2023/05/28 10:27:31;;;;;;;8.00;7.20;;;;;;;27.38;79.37;100397.02;108826;1273;23142;-60
2023/05/28 10:29:56;;;;;;;10.60;7.50;;;;;;;27.38;79.43;100396.60;108755;1267;21977;-65
2023/05/28 10:32:22;;;;;;;10.00;8.00;;;;;;;27.40;79.32;100396.50;108817;1274;21984;-66
2023/05/28 10:34:47;;;;;;;10.40;8.50;;;;;;;27.38;79.47;100396.10;108788;1268;21974;-66
2023/05/28 10:37:13;;;;;;;11.10;8.20;;;;;;;27.36;79.39;100393.10;108751;1276;21977;-65
2023/05/28 10:39:43;;;;;;;8.70;7.80;;;;;;;27.32;79.19;100392.69;110602;1277;21903;-61
2023/05/28 10:42:10;;;;;;;8.70;7.70;;;;;;;27.29;79.38;100387.32;110805;1267;21877;-67
2023/05/28 10:44:48;;;;;;;10.50;7.80;;;;;;;27.34;80.02;100380.99;110711;1276;21828;-62
2023/05/28 10:47:13;;;;;;;8.30;6.90;;;;;;;27.40;80.72;100378.42;110033;1270;21977;-62
2023/05/28 10:49:59;;;;;;;10.10;7.30;;;;;;;27.53;81.37;100379.56;108849;1270;21986;-61
2023/05/28 10:52:25;;;;;;;9.40;8.10;;;;;;;27.71;81.06;100381.19;108758;1277;21973;-66
2023/05/28 10:54:52;;;;;;;9.50;8.50;;;;;;;27.92;80.28;100387.34;109043;1271;22239;-66
2023/05/28 10:57:19;;;;;;;8.70;7.80;;;;;;;28.14;79.12;100390.16;108892;1266;21986;-67
2023/05/28 10:59:47;;;;;;;8.70;7.40;;;;;;;28.31;78.60;100386.67;108861;1270;23796;-66
2023/05/28 11:02:26;;;;;;;9.20;7.90;;;;;;;28.40;76.92;100383.56;108861;1277;21977;-65
2023/05/28 11:04:56;;;;;;;8.90;7.50;;;;;;;28.49;77.87;100375.08;108820;1267;21981;-61
2023/05/28 11:07:23;;;;;;;10.30;7.40;;;;;;;28.66;78.09;100372.52;108901;1274;21975;-61
2023/05/28 11:09:50;;;;;;;9.60;7.00;;;;;;;28.79;77.31;100372.27;108727;1273;21988;-65
2023/05/28 11:12:16;;;;;;;9.40;7.00;;;;;;;28.96;78.12;100382.09;108862;1277;22017;-61